Time;durP1;ratioP1;P1;durP2;ratioP2;P2;SDS_P1;SDS_P2;PMS_P1;PMS_P2;Temp;Humidity;BMP_temperature;BMP_pressure;BME280_temperature;BME280_humidity;BME280_pressure;Samples;Min_cycle;Max_cycle;Signal;HPM_P1;HPM_P2
2022/11/27 00:00:46;;;;;;;;;;;;;;;-0.26;100.00;100492.80;106617;1305;22322;-53
2022/11/27 00:03:13;;;;;;;4.50;2.90;;;;;;;-0.26;100.00;100493.16;106615;1291;22162;-53
2022/11/27 00:05:40;;;;;;;4.90;3.40;;;;;;;-0.24;100.00;100495.11;106609;1303;139091;-53
2022/11/27 00:08:07;;;;;;;5.60;3.00;;;;;;;-0.23;100.00;100498.91;106423;1297;22326;-53
2022/11/27 00:10:34;;;;;;;;;;;;;;;-0.23;100.00;100499.10;106524;1305;138576;-53
2022/11/27 00:13:01;;;;;;;6.20;3.00;;;;;;;-0.24;100.00;100498.48;106620;1298;22142;-53
2022/11/27 00:15:27;;;;;;;5.20;3.00;;;;;;;-0.24;100.00;100503.48;106679;1298;22167;-53
2022/11/27 00:17:54;;;;;;;4.70;3.40;;;;;;;-0.24;100.00;100509.38;106514;1304;140171;-53
2022/11/27 00:20:21;;;;;;;4.10;3.10;;;;;;;-0.23;100.00;100511.79;106624;1298;22213;-52
2022/11/27 00:22:54;;;;;;;4.60;3.80;;;;;;;-0.21;100.00;100511.90;106517;1306;138349;-52
2022/11/27 00:25:20;;;;;;;4.20;3.20;;;;;;;-0.20;100.00;100511.24;106714;1303;22134;-52
2022/11/27 00:27:47;;;;;;;4.70;3.60;;;;;;;-0.20;100.00;100512.17;106599;1286;138217;-53
2022/11/27 00:30:14;;;;;;;6.40;3.60;;;;;;;-0.22;100.00;100507.41;106596;1289;22216;-52
2022/11/27 00:32:41;;;;;;;4.60;3.20;;;;;;;-0.24;100.00;100506.50;106617;1287;22424;-52
2022/11/27 00:35:08;;;;;;;;;;;;;;;-0.23;100.00;100512.02;106606;1290;138609;-56
2022/11/27 00:37:35;;;;;;;5.80;4.00;;;;;;;-0.24;100.00;100507.77;106594;1297;22265;-58
2022/11/27 00:40:02;;;;;;;;;;;;;;;-0.24;100.00;100505.30;106512;1296;138839;-58
2022/11/27 00:42:29;;;;;;;9.00;5.30;;;;;;;-0.25;100.00;100503.21;106598;1298;22308;-57
2022/11/27 00:44:55;;;;;;;8.60;5.00;;;;;;;-0.24;100.00;100502.48;106663;1296;22888;-57
2022/11/27 00:47:22;;;;;;;6.60;5.10;;;;;;;-0.26;100.00;100501.42;106492;1305;138211;-58
2022/11/27 00:49:49;;;;;;;6.50;4.60;;;;;;;-0.26;100.00;100500.33;106749;1304;22315;-57
2022/11/27 00:52:15;;;;;;;5.50;3.50;;;;;;;-0.25;100.00;100499.70;106515;1305;139966;-57
2022/11/27 00:54:42;;;;;;;5.10;3.50;;;;;;;-0.26;100.00;100501.06;106598;1305;22168;-58
2022/11/27 00:57:09;;;;;;;5.20;3.50;;;;;;;-0.28;100.00;100495.34;106661;1296;22215;-58
2022/11/27 00:59:36;;;;;;;4.30;3.20;;;;;;;-0.28;100.00;100495.98;106497;1305;137867;-58
2022/11/27 01:02:02;;;;;;;4.10;2.40;;;;;;;-0.29;100.00;100496.09;106744;1297;22112;-58
2022/11/27 01:04:29;;;;;;;3.90;3.10;;;;;;;-0.31;100.00;100492.73;106494;1288;138418;-57
2022/11/27 01:06:56;;;;;;;3.90;2.70;;;;;;;-0.33;100.00;100490.89;103399;1298;22498;-59
2022/11/27 01:09:23;;;;;;;11.30;3.50;;;;;;;-0.34;100.00;100489.42;102187;1299;22538;-58
2022/11/27 01:11:49;;;;;;;;;;;;;;;-0.33;100.00;100493.23;102251;1297;139491;-58
2022/11/27 01:14:17;;;;;;;4.40;3.60;;;;;;;-0.32;100.00;100494.58;102298;1297;22495;-58
2022/11/27 01:16:44;;;;;;;5.60;3.40;;;;;;;-0.33;100.00;100495.04;106474;1305;138366;-57
2022/11/27 01:19:11;;;;;;;4.80;3.40;;;;;;;-0.36;100.00;100495.84;106632;1305;23065;-59
2022/11/27 01:24:25;;;;;;;3.50;2.90;;;;;;;-0.35;100.00;100491.79;99682;1342;545050;-57
2022/11/27 01:26:51;;;;;;;5.70;3.50;;;;;;;-0.37;100.00;100491.98;101742;1303;22589;-57
2022/11/27 01:29:18;;;;;;;;;;;;;;;-0.37;100.00;100492.55;101994;1292;139121;-57
2022/11/27 01:31:45;;;;;;;5.10;3.60;;;;;;;-0.36;100.00;100493.89;101754;1291;25530;-57
2022/11/27 01:34:14;;;;;;;4.10;3.30;;;;;;;-0.34;100.00;100488.34;101880;1301;139524;-57
2022/11/27 01:36:41;;;;;;;5.10;3.20;;;;;;;-0.34;100.00;100489.64;102058;1316;22504;-57
2022/11/27 01:39:09;;;;;;;;;;;;;;;-0.36;100.00;100487.64;102125;1298;119614;-57
2022/11/27 01:41:38;;;;;;;5.00;3.40;;;;;;;-0.36;100.00;100491.55;102128;1298;125846;-57
2022/11/27 01:44:23;;;;;;;6.40;3.70;;;;;;;-0.37;100.00;100490.77;106326;1292;22184;-59
2022/11/27 01:46:55;;;;;;;5.40;3.60;;;;;;;-0.36;100.00;100488.90;106474;1306;137597;-58
2022/11/27 01:49:31;;;;;;;5.20;3.90;;;;;;;-0.36;100.00;100483.71;106525;1306;22218;-60
2022/11/27 01:51:59;;;;;;;4.10;3.60;;;;;;;-0.39;100.00;100485.04;106446;1306;138284;-58
2022/11/27 01:54:29;;;;;;;4.30;3.20;;;;;;;-0.40;100.00;100482.55;106566;1303;22165;-58
2022/11/27 01:57:05;;;;;;;5.00;3.60;;;;;;;-0.49;100.00;100472.63;106567;1306;23100;-59
2022/11/27 01:59:32;;;;;;;5.40;4.10;;;;;;;-0.42;100.00;100485.80;106474;1305;138787;-59
2022/11/27 02:01:59;;;;;;;;;;;;;;;-0.43;100.00;100482.61;106506;1306;22411;-59
2022/11/27 02:04:26;;;;;;;5.70;3.80;;;;;;;-0.42;100.00;100483.09;106413;1305;126881;-58
2022/11/27 02:06:54;;;;;;;4.60;4.10;;;;;;;-0.42;100.00;100481.48;106534;1306;22317;-58
2022/11/27 02:09:20;;;;;;;4.60;3.60;;;;;;;-0.41;100.00;100485.70;106457;1307;22309;-59
2022/11/27 02:12:12;;;;;;;4.40;3.70;;;;;;;-0.39;100.00;100484.07;106386;1306;139288;-60
2022/11/27 02:14:45;;;;;;;4.90;3.40;;;;;;;-0.37;100.00;100486.63;106503;1306;22276;-60
2022/11/27 02:17:20;;;;;;;5.80;3.40;;;;;;;-0.37;100.00;100485.08;106391;1306;138190;-58
2022/11/27 02:20:10;;;;;;;5.40;4.30;;;;;;;-0.37;100.00;100491.52;106539;1298;22127;-60
2022/11/27 02:22:56;;;;;;;6.80;4.00;;;;;;;-0.36;100.00;100491.22;106394;1298;138144;-60
2022/11/27 02:25:45;;;;;;;3.80;3.20;;;;;;;-0.38;100.00;100488.89;106523;1298;22295;-60
2022/11/27 02:28:33;;;;;;;7.00;4.40;;;;;;;-0.42;100.00;100490.79;106273;1306;138513;-58
2022/11/27 02:31:17;;;;;;;15.20;8.20;;;;;;;-0.40;100.00;100494.67;102196;1292;22498;-57
2022/11/27 02:33:46;;;;;;;6.60;4.20;;;;;;;-0.41;100.00;100490.12;106542;1306;22929;-60
2022/11/27 02:36:14;;;;;;;5.90;3.70;;;;;;;-0.40;100.00;100494.00;104403;1297;139494;-58
2022/11/27 02:38:46;;;;;;;6.70;3.90;;;;;;;-0.41;100.00;100493.14;101914;1287;24452;-57
2022/11/27 02:41:23;;;;;;;3.90;2.90;;;;;;;-0.42;100.00;100495.38;101915;1299;137893;-58
2022/11/27 02:43:50;;;;;;;4.20;2.90;;;;;;;-0.41;100.00;100492.49;102291;1298;22480;-57
2022/11/27 02:46:17;;;;;;;;;;;;;;;-0.44;100.00;100494.91;101930;1301;138447;-58
2022/11/27 02:48:49;;;;;;;7.60;5.10;;;;;;;-0.44;100.00;100495.81;102284;1312;22571;-57
2022/11/27 02:51:18;;;;;;;7.60;4.20;;;;;;;-0.45;100.00;100497.02;102098;1313;22497;-57
2022/11/27 02:53:56;;;;;;;7.20;5.00;;;;;;;-0.47;100.00;100496.15;106535;1306;139437;-59
2022/11/27 02:56:25;;;;;;;8.80;4.60;;;;;;;-0.49;100.00;100496.71;106562;1305;23089;-59
2022/11/27 02:58:54;;;;;;;7.10;5.00;;;;;;;-0.49;100.00;100498.14;106489;1306;138675;-58
2022/11/27 03:01:22;;;;;;;6.60;4.50;;;;;;;-0.49;100.00;100498.82;106442;1303;22228;-58
2022/11/27 03:03:51;;;;;;;6.80;4.70;;;;;;;-0.49;100.00;100503.09;106683;1306;22225;-58
2022/11/27 03:06:22;;;;;;;5.90;4.30;;;;;;;-0.48;100.00;100506.77;106523;1306;22408;-55
2022/11/27 03:09:01;;;;;;;8.20;4.80;;;;;;;-0.45;100.00;100509.17;106519;1306;22263;-57
2022/11/27 03:11:31;;;;;;;5.80;4.40;;;;;;;-0.44;100.00;100511.52;106461;1306;138595;-56
2022/11/27 03:14:00;;;;;;;6.60;4.10;;;;;;;-0.43;100.00;100516.05;106690;1304;22211;-56
2022/11/27 03:16:51;;;;;;;7.40;4.70;;;;;;;-0.43;100.00;100518.73;106613;1306;141457;-57
2022/11/27 03:19:19;;;;;;;5.20;3.90;;;;;;;-0.43;100.00;100520.50;106563;1306;22127;-56
2022/11/27 03:21:49;;;;;;;5.30;4.00;;;;;;;-0.44;100.00;100520.08;106554;1298;22105;-57
2022/11/27 03:24:16;;;;;;;7.50;5.50;;;;;;;-0.44;100.00;100519.75;106571;1306;22173;-57
2022/11/27 03:26:43;;;;;;;;;;;;;;;-0.45;100.00;100520.71;106638;1306;23195;-57
2022/11/27 03:29:11;;;;;;;7.40;6.00;;;;;;;-0.48;100.00;100511.64;106511;1298;124424;-56
2022/11/27 03:31:38;;;;;;;8.00;6.10;;;;;;;-0.42;100.00;100522.14;106572;1290;22618;-56
2022/11/27 03:34:05;;;;;;;7.40;5.90;;;;;;;-0.44;100.00;100510.77;106520;1306;137997;-52
2022/11/27 03:36:32;;;;;;;7.70;6.20;;;;;;;-0.37;100.00;100514.88;106537;1306;22821;-59
2022/11/27 03:38:59;;;;;;;6.70;4.70;;;;;;;-0.36;100.00;100514.61;106580;1297;22217;-60
2022/11/27 03:41:44;;;;;;;5.10;4.60;;;;;;;-0.38;100.00;100518.55;106564;1291;137566;-59
2022/11/27 03:44:14;;;;;;;6.90;4.30;;;;;;;-0.40;100.00;100518.20;106630;1291;22170;-60
2022/11/27 03:46:58;;;;;;;5.70;4.20;;;;;;;-0.41;100.00;100518.49;106438;1300;138378;-58
2022/11/27 03:49:48;;;;;;;5.50;4.30;;;;;;;-0.42;100.00;100524.98;106551;1306;22245;-59
2022/11/27 03:52:49;;;;;;;4.70;3.80;;;;;;;-0.44;100.00;100521.35;106578;1305;138369;-59
2022/11/27 03:55:20;;;;;;;4.80;3.70;;;;;;;-0.44;100.00;100519.61;106717;1306;22117;-58
2022/11/27 03:58:11;;;;;;;6.40;4.20;;;;;;;-0.44;100.00;100521.02;106561;1306;22244;-58
2022/11/27 04:00:41;;;;;;;6.80;5.20;;;;;;;-0.44;100.00;100522.75;106606;1306;22178;-59
2022/11/27 04:03:09;;;;;;;9.40;6.50;;;;;;;-0.44;100.00;100521.69;106564;1306;22311;-60
2022/11/27 04:05:36;;;;;;;7.80;4.70;;;;;;;-0.45;100.00;100525.58;106499;1306;138851;-60
2022/11/27 04:08:03;;;;;;;6.40;5.20;;;;;;;-0.45;100.00;100522.89;106728;1306;22944;-60
2022/11/27 04:10:30;;;;;;;7.30;4.60;;;;;;;-0.43;100.00;100519.63;106481;1298;138576;-58
2022/11/27 04:12:56;;;;;;;5.40;4.30;;;;;;;-0.41;100.00;100522.80;106690;1302;22172;-59
2022/11/27 04:15:23;;;;;;;8.90;4.60;;;;;;;-0.41;100.00;100526.02;106677;1306;22288;-60
2022/11/27 04:17:50;;;;;;;5.40;4.30;;;;;;;-0.40;100.00;100527.34;106460;1298;139594;-59
2022/11/27 04:20:17;;;;;;;7.10;4.40;;;;;;;-0.39;100.00;100526.70;106601;1300;23077;-59
2022/11/27 04:22:43;;;;;;;6.80;5.00;;;;;;;-0.38;100.00;100526.54;106518;1306;138224;-58
2022/11/27 04:25:10;;;;;;;8.30;5.10;;;;;;;-0.38;100.00;100526.21;106580;1293;22204;-58
2022/11/27 04:27:37;;;;;;;6.70;5.10;;;;;;;-0.37;100.00;100529.13;106606;1306;23222;-60
2022/11/27 04:30:04;;;;;;;8.90;5.80;;;;;;;-0.36;100.00;100527.06;106505;1292;138920;-59
2022/11/27 04:32:31;;;;;;;6.70;4.30;;;;;;;-0.35;100.00;100525.95;106696;1306;22899;-60
2022/11/27 04:34:58;;;;;;;6.40;4.60;;;;;;;-0.35;100.00;100525.42;106492;1303;137970;-60
2022/11/27 04:37:24;;;;;;;6.40;4.50;;;;;;;-0.34;100.00;100524.96;102622;1299;26787;-58
2022/11/27 04:39:51;;;;;;;7.60;5.40;;;;;;;-0.32;100.00;100522.95;102365;1289;22724;-57
2022/11/27 04:42:18;;;;;;;7.70;5.60;;;;;;;-0.31;100.00;100524.60;102195;1298;141632;-57
2022/11/27 04:44:44;;;;;;;8.90;5.90;;;;;;;-0.30;100.00;100521.89;102324;1281;22498;-58
2022/11/27 04:47:11;;;;;;;;;;;;;;;-0.30;100.00;100526.48;102196;1289;139183;-59
2022/11/27 04:49:38;;;;;;;8.10;5.80;;;;;;;-0.31;100.00;100527.02;102225;1291;24069;-57
2022/11/27 04:52:05;;;;;;;7.80;6.20;;;;;;;-0.37;100.00;100520.92;102219;1313;139207;-57
2022/11/27 04:54:31;;;;;;;9.60;6.10;;;;;;;-0.42;100.00;100520.40;102375;1289;25372;-58
2022/11/27 04:56:58;;;;;;;9.60;6.20;;;;;;;-0.43;100.00;100525.69;102287;1289;22504;-58
2022/11/27 04:59:25;;;;;;;8.50;5.70;;;;;;;-0.45;100.00;100528.44;102243;1297;139749;-58
2022/11/27 05:01:52;;;;;;;8.80;6.10;;;;;;;-0.47;100.00;100528.87;102415;1298;22758;-58
2022/11/27 05:04:19;;;;;;;9.80;6.10;;;;;;;-0.54;100.00;100517.77;102262;1305;138315;-56
2022/11/27 05:06:45;;;;;;;9.90;6.20;;;;;;;-0.48;100.00;100526.95;102355;1285;23189;-58
2022/11/27 05:09:12;;;;;;;;;;;;;;;-0.47;100.00;100523.78;102350;1289;25252;-57
2022/11/27 05:11:39;;;;;;;6.30;5.00;;;;;;;-0.46;100.00;100527.06;102315;1288;126851;-58
2022/11/27 05:14:19;;;;;;;9.40;6.60;;;;;;;-0.47;100.00;100527.33;102154;1295;22503;-56
2022/11/27 05:16:50;;;;;;;10.40;6.00;;;;;;;-0.46;100.00;100526.70;102293;1291;138065;-58
2022/11/27 05:19:17;;;;;;;8.20;6.30;;;;;;;-0.44;100.00;100528.65;102268;1282;22481;-59
2022/11/27 05:21:45;;;;;;;7.80;5.10;;;;;;;-0.44;100.00;100530.44;102319;1298;23894;-59
2022/11/27 05:24:12;;;;;;;7.00;5.00;;;;;;;-0.45;100.00;100529.63;102220;1289;137806;-58
2022/11/27 05:26:38;;;;;;;;;;;;;;;-0.44;100.00;100529.95;102364;1305;22532;-55
2022/11/27 05:29:06;;;;;;;7.00;5.40;;;;;;;-0.44;100.00;100529.76;102193;1282;126121;-58
2022/11/27 05:31:33;;;;;;;7.50;5.00;;;;;;;-0.44;100.00;100529.95;106757;1298;22166;-57
2022/11/27 05:34:00;;;;;;;;;;;;;;;-0.44;100.00;100536.00;106496;1304;139192;-57
2022/11/27 05:36:27;;;;;;;8.30;5.70;;;;;;;-0.45;100.00;100534.64;106655;1301;22232;-59
2022/11/27 05:38:54;;;;;;;7.00;4.80;;;;;;;-0.46;100.00;100536.14;106656;1288;23106;-59
2022/11/27 05:41:21;;;;;;;6.50;4.40;;;;;;;-0.46;100.00;100532.09;106501;1298;139435;-59
2022/11/27 05:43:47;;;;;;;;;;;;;;;-0.45;100.00;100532.52;106703;1282;22459;-58
2022/11/27 05:46:15;;;;;;;8.00;5.30;;;;;;;-0.47;100.00;100531.08;106489;1303;124774;-57
2022/11/27 05:48:42;;;;;;;9.60;6.20;;;;;;;-0.50;100.00;100535.55;106585;1290;22134;-59
2022/11/27 05:51:09;;;;;;;9.00;5.30;;;;;;;-0.51;100.00;100538.13;106691;1298;23386;-59
2022/11/27 05:53:36;;;;;;;7.00;5.50;;;;;;;-0.48;100.00;100539.67;106571;1288;138116;-58
2022/11/27 05:56:03;;;;;;;;;;;;;;;-0.47;100.00;100537.51;106719;1298;23230;-59
2022/11/27 05:58:30;;;;;;;9.70;5.60;;;;;;;-0.46;100.00;100537.28;106492;1305;125456;-57
2022/11/27 06:00:56;;;;;;;8.40;5.30;;;;;;;-0.46;100.00;100538.11;106690;1306;23058;-58
2022/11/27 06:03:23;;;;;;;;;;;;;;;-0.44;100.00;100544.75;106709;1304;22351;-59
2022/11/27 06:05:50;;;;;;;11.00;6.60;;;;;;;-0.43;100.00;100542.63;106589;1306;126272;-57
2022/11/27 06:08:18;;;;;;;12.00;6.30;;;;;;;-0.43;100.00;100543.35;106576;1299;22397;-59
2022/11/27 06:10:45;;;;;;;8.70;5.30;;;;;;;-0.43;100.00;100547.15;106606;1306;138260;-59
2022/11/27 06:13:12;;;;;;;9.30;6.00;;;;;;;-0.45;100.00;100545.88;106555;1306;22249;-59
2022/11/27 06:15:39;;;;;;;;;;;;;;;-0.45;100.00;100545.77;106602;1304;23570;-58
2022/11/27 06:18:05;;;;;;;9.70;5.90;;;;;;;-0.46;100.00;100547.76;106597;1305;125972;-60
2022/11/27 06:20:32;;;;;;;8.00;5.60;;;;;;;-0.45;100.00;100544.45;106692;1306;23135;-59
2022/11/27 06:22:59;;;;;;;9.20;4.90;;;;;;;-0.44;100.00;100544.94;106506;1306;141530;-58
2022/11/27 06:25:26;;;;;;;7.60;5.20;;;;;;;-0.45;100.00;100547.75;106675;1305;22200;-59
2022/11/27 06:27:52;;;;;;;8.90;5.90;;;;;;;-0.48;100.00;100548.50;106679;1305;22256;-59
2022/11/27 06:30:19;;;;;;;9.50;5.40;;;;;;;-0.47;100.00;100547.41;106556;1304;139134;-59
2022/11/27 06:32:46;;;;;;;8.10;5.30;;;;;;;-0.45;100.00;100555.78;106562;1305;22144;-60
2022/11/27 06:35:13;;;;;;;8.30;6.10;;;;;;;-0.44;100.00;100557.52;106403;1292;139991;-57
2022/11/27 06:37:39;;;;;;;;;;;;;;;-0.40;100.00;100559.44;102317;1282;22670;-58
2022/11/27 06:40:07;;;;;;;8.20;6.50;;;;;;;-0.37;100.00;100563.73;102212;1289;125268;-57
2022/11/27 06:42:34;;;;;;;20.70;9.50;;;;;;;-0.37;100.00;100561.48;102383;1289;22593;-57
2022/11/27 06:45:00;;;;;;;;;;;;;;;-0.36;100.00;100562.43;102366;1289;22457;-57
2022/11/27 06:47:27;;;;;;;14.10;7.70;;;;;;;-0.33;100.00;100565.39;102244;1298;124816;-58
2022/11/27 06:49:54;;;;;;;10.40;7.10;;;;;;;-0.34;100.00;100564.92;102438;1282;24015;-58
2022/11/27 06:52:20;;;;;;;13.30;7.90;;;;;;;-0.33;100.00;100562.85;102285;1307;140313;-58
2022/11/27 06:54:47;;;;;;;;;;;;;;;-0.32;100.00;100562.02;102326;1289;24263;-58
2022/11/27 06:57:14;;;;;;;9.50;6.60;;;;;;;-0.29;100.00;100563.54;102285;1289;22481;-58
2022/11/27 06:59:40;;;;;;;8.00;6.10;;;;;;;-0.30;100.00;100562.90;102280;1289;139650;-57
2022/11/27 07:02:12;;;;;;;8.30;6.20;;;;;;;-0.32;100.00;100562.29;102322;1297;22489;-58
2022/11/27 07:04:39;;;;;;;10.10;6.60;;;;;;;-0.35;100.00;100563.08;106223;1281;138455;-59
2022/11/27 07:07:06;;;;;;;10.70;6.80;;;;;;;-0.37;100.00;100563.90;106694;1297;22230;-59
2022/11/27 07:09:33;;;;;;;10.20;6.80;;;;;;;-0.34;100.00;100569.91;106550;1306;22142;-59
2022/11/27 07:11:59;;;;;;;8.90;6.30;;;;;;;-0.29;100.00;100570.33;106605;1306;139461;-59
2022/11/27 07:14:26;;;;;;;17.40;8.80;;;;;;;-0.26;100.00;100564.02;106619;1294;22235;-59
2022/11/27 07:16:53;;;;;;;25.00;11.30;;;;;;;-0.24;100.00;100566.01;106482;1306;140041;-59
2022/11/27 07:19:20;;;;;;;24.80;12.80;;;;;;;-0.24;100.00;100566.55;106611;1305;22158;-59
2022/11/27 07:21:47;;;;;;;18.40;9.70;;;;;;;-0.25;100.00;100567.65;106618;1306;22106;-59
2022/11/27 07:24:13;;;;;;;18.50;9.10;;;;;;;-0.24;100.00;100568.35;106421;1299;138673;-59
2022/11/27 07:26:40;;;;;;;19.30;9.90;;;;;;;-0.26;100.00;100567.50;106621;1306;22135;-60
2022/11/27 07:29:07;;;;;;;;;;;;;;;-0.27;100.00;100563.59;106601;1297;138686;-60
2022/11/27 07:31:34;;;;;;;14.70;7.70;;;;;;;-0.27;100.00;100563.59;106683;1282;22224;-60
2022/11/27 07:34:00;;;;;;;41.80;18.40;;;;;;;-0.26;100.00;100561.15;106471;1306;140717;-60
2022/11/27 07:36:29;;;;;;;60.90;28.20;;;;;;;-0.23;100.00;100560.19;106624;1282;22254;-60
2022/11/27 07:38:56;;;;;;;32.90;17.80;;;;;;;-0.23;100.00;100558.39;106613;1290;22224;-60
2022/11/27 07:41:23;;;;;;;19.80;11.40;;;;;;;-0.23;100.00;100556.21;106478;1306;139198;-60
2022/11/27 07:43:58;;;;;;;12.30;8.00;;;;;;;-0.21;100.00;100561.02;106608;1299;22279;-60
2022/11/27 07:46:24;;;;;;;;;;;;;;;-0.22;100.00;100558.62;106468;1306;139739;-60
2022/11/27 07:48:51;;;;;;;13.60;7.10;;;;;;;-0.22;100.00;100560.20;106559;1282;22411;-60
2022/11/27 07:51:19;;;;;;;12.30;7.20;;;;;;;-0.21;100.00;100559.20;106606;1298;24748;-60
2022/11/27 07:53:46;;;;;;;9.40;6.40;;;;;;;-0.18;100.00;100560.39;106466;1306;138376;-60
2022/11/27 07:56:13;;;;;;;9.80;6.30;;;;;;;-0.16;100.00;100562.64;106572;1297;22317;-60
2022/11/27 07:58:40;;;;;;;10.90;6.80;;;;;;;-0.14;100.00;100562.82;106486;1306;140266;-60
2022/11/27 08:01:15;;;;;;;8.50;6.10;;;;;;;-0.14;100.00;100562.79;106610;1281;22224;-60
2022/11/27 08:03:44;;;;;;;9.20;6.00;;;;;;;-0.14;100.00;100562.99;106597;1295;22121;-60
2022/11/27 08:06:19;;;;;;;9.10;5.50;;;;;;;-0.13;100.00;100562.11;106432;1306;139751;-60
2022/11/27 08:08:46;;;;;;;9.00;6.80;;;;;;;-0.12;100.00;100561.29;106577;1306;22153;-60
2022/11/27 08:11:15;;;;;;;22.20;11.80;;;;;;;-0.10;100.00;100562.27;106500;1306;139753;-62
2022/11/27 08:13:41;;;;;;;12.60;7.20;;;;;;;-0.07;100.00;100561.52;106616;1306;22116;-61
2022/11/27 08:16:08;;;;;;;12.40;7.60;;;;;;;-0.06;100.00;100561.85;106608;1289;138173;-61
2022/11/27 08:18:35;;;;;;;;;;;;;;;-0.03;100.00;100563.40;106641;1290;23285;-61
2022/11/27 08:21:02;;;;;;;17.90;9.30;;;;;;;-0.05;100.00;100563.27;106575;1306;22893;-62
2022/11/27 08:23:29;;;;;;;;;;;;;;;-0.11;100.00;100562.36;106561;1306;140452;-61
2022/11/27 08:25:55;;;;;;;13.80;7.30;;;;;;;-0.11;100.00;100562.80;106609;1306;22174;-61
2022/11/27 08:28:22;;;;;;;9.40;6.10;;;;;;;-0.13;100.00;100568.35;106508;1306;138917;-61
2022/11/27 08:30:59;;;;;;;11.10;6.60;;;;;;;-0.13;100.00;100566.23;106704;1306;22129;-61
2022/11/27 08:33:26;;;;;;;12.70;7.60;;;;;;;-0.15;100.00;100565.92;106584;1306;22129;-61
2022/11/27 08:35:53;;;;;;;;;;;;;;;-0.15;100.00;100567.39;106577;1297;138384;-61
2022/11/27 08:38:20;;;;;;;13.00;6.20;;;;;;;-0.14;100.00;100567.98;106621;1306;23171;-61
2022/11/27 08:40:59;;;;;;;;;;;;;;;-0.13;100.00;100567.84;106573;1306;138505;-61
2022/11/27 08:43:26;;;;;;;8.50;5.40;;;;;;;-0.13;100.00;100565.73;106612;1297;22110;-61
2022/11/27 08:45:53;;;;;;;;;;;;;;;-0.13;100.00;100564.06;106690;1288;23323;-61
2022/11/27 08:48:20;;;;;;;7.20;5.20;;;;;;;-0.15;100.00;100565.68;106537;1303;125182;-61
2022/11/27 08:50:47;;;;;;;;;;;;;;;-0.16;100.00;100568.50;106651;1291;22375;-60
2022/11/27 08:53:14;;;;;;;23.10;12.40;;;;;;;-0.19;100.00;100562.96;106492;1274;125170;-61
2022/11/27 08:55:41;;;;;;;18.10;11.80;;;;;;;-0.20;100.00;100567.47;106610;1306;22204;-60
2022/11/27 08:58:07;;;;;;;9.80;6.80;;;;;;;-0.22;100.00;100563.58;106526;1298;139614;-59
2022/11/27 09:00:35;;;;;;;9.30;6.40;;;;;;;-0.21;100.00;100566.96;106640;1306;22144;-60
2022/11/27 09:03:02;;;;;;;10.10;6.30;;;;;;;-0.20;100.00;100562.39;106611;1305;22136;-59
2022/11/27 09:05:28;;;;;;;;;;;;;;;-0.19;100.00;100563.49;106493;1304;138999;-59
2022/11/27 09:07:55;;;;;;;12.10;5.90;;;;;;;-0.16;100.00;100564.78;106629;1306;22959;-59
2022/11/27 09:10:22;;;;;;;8.40;6.10;;;;;;;-0.15;100.00;100560.16;106542;1306;139129;-59
2022/11/27 09:12:49;;;;;;;;;;;;;;;-0.13;100.00;100562.32;106711;1306;22417;-60
2022/11/27 09:15:16;;;;;;;6.90;5.30;;;;;;;-0.13;100.00;100558.17;106665;1298;22260;-60
2022/11/27 09:17:43;;;;;;;;;;;;;;;-0.14;100.00;100558.94;106496;1304;140273;-60
2022/11/27 09:20:10;;;;;;;8.60;5.10;;;;;;;-0.15;100.00;100562.20;106616;1292;22169;-59
2022/11/27 09:22:36;;;;;;;37.10;19.50;;;;;;;-0.16;100.00;100562.86;106465;1305;138942;-60
2022/11/27 09:25:03;;;;;;;11.00;5.40;;;;;;;-0.14;100.00;100561.31;106608;1306;22224;-60
2022/11/27 09:27:30;;;;;;;9.30;6.30;;;;;;;-0.14;100.00;100559.41;106724;1306;22114;-60
2022/11/27 09:29:57;;;;;;;13.00;8.80;;;;;;;-0.14;100.00;100559.88;106605;1306;138545;-60
2022/11/27 09:32:24;;;;;;;11.10;7.10;;;;;;;-0.12;100.00;100558.44;106632;1289;22226;-60
2022/11/27 09:34:51;;;;;;;;;;;;;;;-0.10;100.00;100562.84;106596;1305;139372;-60
2022/11/27 09:37:17;;;;;;;28.60;11.50;;;;;;;-0.08;100.00;100561.73;106645;1288;22127;-61
2022/11/27 09:39:44;;;;;;;20.70;10.40;;;;;;;-0.08;100.00;100561.17;106589;1306;22167;-61
2022/11/27 09:42:14;;;;;;;14.40;9.30;;;;;;;-0.08;100.00;100559.83;106462;1305;138499;-61
2022/11/27 09:44:52;;;;;;;9.10;5.50;;;;;;;-0.10;100.00;100559.16;106535;1307;22387;-61
2022/11/27 09:47:38;;;;;;;11.80;6.80;;;;;;;-0.13;100.00;100558.58;106451;1298;140540;-61
2022/11/27 09:50:18;;;;;;;;;;;;;;;-0.13;100.00;100559.41;106583;1306;23499;-61
2022/11/27 09:52:51;;;;;;;11.70;6.40;;;;;;;-0.13;100.00;100555.45;106477;1306;125145;-61
2022/11/27 09:55:40;;;;;;;15.90;6.70;;;;;;;-0.12;100.00;100555.00;106494;1306;23331;-61
2022/11/27 09:58:42;;;;;;;14.20;6.00;;;;;;;-0.13;100.00;100559.45;106372;1295;139197;-61
2022/11/27 20:22:40;;;;;;;30.80;18.20;;;;;;;-0.72;100.00;100577.73;99893;1326;557662;-59
2022/11/27 20:25:08;;;;;;;23.20;12.50;;;;;;;-0.60;100.00;100582.15;100980;1311;69900;-60
2022/11/27 20:27:45;;;;;;;17.80;10.90;;;;;;;-0.58;100.00;100580.61;100903;1301;138346;-61
2022/11/27 20:30:12;;;;;;;14.30;9.20;;;;;;;-0.56;100.00;100580.63;101715;1307;25644;-61
2022/11/27 20:32:39;;;;;;;17.90;11.10;;;;;;;-0.57;100.00;100584.66;101842;1317;26515;-60
2022/11/27 20:35:08;;;;;;;17.30;9.50;;;;;;;-0.59;100.00;100587.77;104934;1302;138440;-61
2022/11/27 20:37:35;;;;;;;17.00;11.90;;;;;;;-0.59;100.00;100583.80;105493;1318;23475;-61
2022/11/27 20:40:02;;;;;;;20.30;14.80;;;;;;;-0.58;100.00;100581.19;105548;1310;138386;-61
2022/11/27 20:42:29;;;;;;;14.90;10.00;;;;;;;-0.57;100.00;100582.50;105491;1315;22371;-61
2022/11/27 20:44:56;;;;;;;;;;;;;;;-0.57;100.00;100584.83;105399;1301;138557;-61
2022/11/27 20:47:22;;;;;;;8.40;5.20;;;;;;;-0.59;100.00;100584.27;101276;1317;22694;-59
2022/11/27 20:49:49;;;;;;;7.80;4.80;;;;;;;-0.54;100.00;100589.32;100968;1317;24228;-60
2022/11/27 20:52:16;;;;;;;6.40;4.40;;;;;;;-0.53;100.00;100585.14;100840;1301;138266;-60
2022/11/27 20:54:43;;;;;;;7.80;5.50;;;;;;;-0.52;100.00;100583.58;100899;1311;24199;-60
2022/11/27 20:57:12;;;;;;;15.40;8.30;;;;;;;-0.53;100.00;100584.74;100881;1308;139779;-60
2022/11/27 20:59:40;;;;;;;11.40;7.50;;;;;;;-0.55;100.00;100584.63;105135;1325;22395;-61
2022/11/27 21:02:10;;;;;;;8.20;5.10;;;;;;;-0.58;100.00;100583.52;105644;1315;22136;-61
2022/11/27 21:04:37;;;;;;;6.40;4.60;;;;;;;-0.59;100.00;100584.33;105521;1313;139828;-61
2022/11/27 21:07:04;;;;;;;;;;;;;;;-0.57;100.00;100591.09;105508;1294;22453;-61
2022/11/27 21:09:31;;;;;;;10.70;6.70;;;;;;;-0.60;100.00;100585.73;105539;1299;124660;-61
2022/11/27 21:11:58;;;;;;;7.70;4.80;;;;;;;-0.61;100.00;100590.41;105519;1318;22214;-61
2022/11/27 21:14:25;;;;;;;13.30;8.50;;;;;;;-0.63;100.00;100596.41;105493;1316;22137;-62
2022/11/27 21:16:53;;;;;;;;;;;;;;;-0.64;100.00;100596.60;105447;1315;138884;-60
2022/11/27 21:19:21;;;;;;;8.30;5.00;;;;;;;-0.62;100.00;100600.70;105526;1311;22127;-60
2022/11/27 21:21:49;;;;;;;6.30;4.10;;;;;;;-0.62;100.00;100600.40;105622;1315;139143;-60
2022/11/27 21:24:16;;;;;;;7.80;4.90;;;;;;;-0.60;100.00;100597.67;105520;1315;22238;-61
2022/11/27 21:26:43;;;;;;;6.80;4.10;;;;;;;-0.59;100.00;100594.29;105502;1311;22280;-61
2022/11/27 21:29:12;;;;;;;6.10;4.80;;;;;;;-0.57;100.00;100592.28;105478;1300;24095;-61
2022/11/27 21:31:40;;;;;;;5.20;3.30;;;;;;;-0.57;100.00;100592.98;105528;1311;22253;-60
2022/11/27 21:34:12;;;;;;;6.20;3.60;;;;;;;-0.58;100.00;100593.54;105573;1299;138234;-61
2022/11/27 21:36:39;;;;;;;4.10;3.00;;;;;;;-0.59;100.00;100596.77;105542;1311;22276;-60
2022/11/27 21:39:07;;;;;;;4.30;3.40;;;;;;;-0.56;100.00;100595.73;105567;1301;138409;-60
2022/11/27 21:41:34;;;;;;;5.80;3.70;;;;;;;-0.56;100.00;100596.49;105744;1315;22164;-60
2022/11/27 21:44:01;;;;;;;4.30;3.00;;;;;;;-0.54;100.00;100602.20;105692;1315;22234;-60